sensor_id;sensor_type;location;lat;lon;timestamp;temperature;humidity
5924;DHT22;2987;50.884;14.818;2023-09-19T00:01:40;16.80;99.90
5924;DHT22;2987;50.884;14.818;2023-09-19T00:04:08;16.80;99.90
5924;DHT22;2987;50.884;14.818;2023-09-19T00:06:39;16.70;99.90
5924;DHT22;2987;50.884;14.818;2023-09-19T00:09:05;16.70;99.90
5924;DHT22;2987;50.884;14.818;2023-09-19T00:11:37;16.70;99.90
5924;DHT22;2987;50.884;14.818;2023-09-19T00:14:04;16.70;99.90
5924;DHT22;2987;50.884;14.818;2023-09-19T00:16:34;16.70;99.90
5924;DHT22;2987;50.884;14.818;2023-09-19T00:19:02;16.70;99.90
5924;DHT22;2987;50.884;14.818;2023-09-19T00:21:34;16.70;99.90
5924;DHT22;2987;50.884;14.818;2023-09-19T00:23:59;16.60;99.90
5924;DHT22;2987;50.884;14.818;2023-09-19T00:26:25;16.60;99.90
5924;DHT22;2987;50.884;14.818;2023-09-19T00:28:53;16.60;99.90
5924;DHT22;2987;50.884;14.818;2023-09-19T00:33:44;16.70;99.90
5924;DHT22;2987;50.884;14.818;2023-09-19T00:36:10;16.70;99.90
5924;DHT22;2987;50.884;14.818;2023-09-19T00:38:36;16.60;99.90
5924;DHT22;2987;50.884;14.818;2023-09-19T00:41:02;16.60;99.90
5924;DHT22;2987;50.884;14.818;2023-09-19T00:43:28;16.60;99.90
5924;DHT22;2987;50.884;14.818;2023-09-19T00:45:56;16.60;99.90
5924;DHT22;2987;50.884;14.818;2023-09-19T00:48:23;16.60;99.90
5924;DHT22;2987;50.884;14.818;2023-09-19T00:50:51;16.60;99.90
5924;DHT22;2987;50.884;14.818;2023-09-19T00:53:19;16.60;99.90
5924;DHT22;2987;50.884;14.818;2023-09-19T00:55:46;16.60;99.90
5924;DHT22;2987;50.884;14.818;2023-09-19T00:58:14;16.60;99.90
5924;DHT22;2987;50.884;14.818;2023-09-19T01:00:40;16.60;99.90
5924;DHT22;2987;50.884;14.818;2023-09-19T01:03:10;16.60;99.90
5924;DHT22;2987;50.884;14.818;2023-09-19T01:05:40;16.60;99.90
5924;DHT22;2987;50.884;14.818;2023-09-19T01:08:08;16.60;99.90
5924;DHT22;2987;50.884;14.818;2023-09-19T01:10:33;16.70;99.90
5924;DHT22;2987;50.884;14.818;2023-09-19T01:28:15;16.80;99.90
5924;DHT22;2987;50.884;14.818;2023-09-19T01:30:44;16.80;99.90
5924;DHT22;2987;50.884;14.818;2023-09-19T01:33:11;16.70;99.90
5924;DHT22;2987;50.884;14.818;2023-09-19T01:35:40;16.80;99.90
5924;DHT22;2987;50.884;14.818;2023-09-19T01:38:06;16.70;99.90
5924;DHT22;2987;50.884;14.818;2023-09-19T01:40:41;16.70;99.90
5924;DHT22;2987;50.884;14.818;2023-09-19T01:43:17;16.60;99.90
5924;DHT22;2987;50.884;14.818;2023-09-19T01:46:09;16.60;99.90
5924;DHT22;2987;50.884;14.818;2023-09-19T01:48:49;16.60;99.90
5924;DHT22;2987;50.884;14.818;2023-09-19T01:51:26;16.60;99.90
5924;DHT22;2987;50.884;14.818;2023-09-19T01:54:09;16.60;99.90
5924;DHT22;2987;50.884;14.818;2023-09-19T01:56:50;16.60;99.90
5924;DHT22;2987;50.884;14.818;2023-09-19T01:59:24;16.60;99.90
5924;DHT22;2987;50.884;14.818;2023-09-19T02:01:54;16.60;99.90
5924;DHT22;2987;50.884;14.818;2023-09-19T02:04:21;16.50;99.90
5924;DHT22;2987;50.884;14.818;2023-09-19T02:06:47;16.50;99.90
5924;DHT22;2987;50.884;14.818;2023-09-19T02:09:14;16.50;99.90
5924;DHT22;2987;50.884;14.818;2023-09-19T02:11:41;16.50;99.90
5924;DHT22;2987;50.884;14.818;2023-09-19T02:14:08;16.40;99.90
5924;DHT22;2987;50.884;14.818;2023-09-19T02:16:34;16.50;99.90
5924;DHT22;2987;50.884;14.818;2023-09-19T02:19:00;16.40;99.90
5924;DHT22;2987;50.884;14.818;2023-09-19T02:21:31;16.50;99.90
5924;DHT22;2987;50.884;14.818;2023-09-19T02:23:58;16.50;99.90
5924;DHT22;2987;50.884;14.818;2023-09-19T02:26:25;16.40;99.90
5924;DHT22;2987;50.884;14.818;2023-09-19T02:28:51;16.40;99.90
5924;DHT22;2987;50.884;14.818;2023-09-19T02:31:16;16.40;99.90
5924;DHT22;2987;50.884;14.818;2023-09-19T02:33:42;16.40;99.90
5924;DHT22;2987;50.884;14.818;2023-09-19T02:36:09;16.40;99.90
5924;DHT22;2987;50.884;14.818;2023-09-19T02:38:35;16.40;99.90
5924;DHT22;2987;50.884;14.818;2023-09-19T02:41:03;16.40;99.90
5924;DHT22;2987;50.884;14.818;2023-09-19T02:43:29;16.40;99.90
5924;DHT22;2987;50.884;14.818;2023-09-19T02:45:55;16.40;99.90
5924;DHT22;2987;50.884;14.818;2023-09-19T02:48:22;16.40;99.90
5924;DHT22;2987;50.884;14.818;2023-09-19T02:50:49;16.40;99.90
5924;DHT22;2987;50.884;14.818;2023-09-19T02:53:16;16.40;99.90
5924;DHT22;2987;50.884;14.818;2023-09-19T02:55:42;16.50;99.90
5924;DHT22;2987;50.884;14.818;2023-09-19T02:58:09;16.40;99.90
5924;DHT22;2987;50.884;14.818;2023-09-19T03:00:38;16.40;99.90
5924;DHT22;2987;50.884;14.818;2023-09-19T03:03:05;16.40;99.90
5924;DHT22;2987;50.884;14.818;2023-09-19T03:05:32;16.30;99.90
5924;DHT22;2987;50.884;14.818;2023-09-19T03:07:59;16.40;99.90
5924;DHT22;2987;50.884;14.818;2023-09-19T03:10:30;16.40;99.90
5924;DHT22;2987;50.884;14.818;2023-09-19T03:12:58;16.40;99.90
5924;DHT22;2987;50.884;14.818;2023-09-19T03:15:26;16.40;99.90
5924;DHT22;2987;50.884;14.818;2023-09-19T03:17:52;16.30;99.90
5924;DHT22;2987;50.884;14.818;2023-09-19T03:20:22;16.30;99.90
5924;DHT22;2987;50.884;14.818;2023-09-19T03:22:49;16.30;99.90
5924;DHT22;2987;50.884;14.818;2023-09-19T03:25:16;16.30;99.90
5924;DHT22;2987;50.884;14.818;2023-09-19T03:27:46;16.30;99.90
5924;DHT22;2987;50.884;14.818;2023-09-19T03:30:14;16.30;99.90
5924;DHT22;2987;50.884;14.818;2023-09-19T03:32:46;16.20;99.90
5924;DHT22;2987;50.884;14.818;2023-09-19T03:35:13;16.20;99.90
5924;DHT22;2987;50.884;14.818;2023-09-19T03:37:42;16.20;99.90
5924;DHT22;2987;50.884;14.818;2023-09-19T03:40:09;16.20;99.90
5924;DHT22;2987;50.884;14.818;2023-09-19T03:42:40;16.20;99.90
5924;DHT22;2987;50.884;14.818;2023-09-19T03:45:08;16.20;99.90
5924;DHT22;2987;50.884;14.818;2023-09-19T03:47:42;16.20;99.90
5924;DHT22;2987;50.884;14.818;2023-09-19T03:50:09;16.10;99.90
5924;DHT22;2987;50.884;14.818;2023-09-19T03:52:37;16.10;99.90
5924;DHT22;2987;50.884;14.818;2023-09-19T03:55:03;16.10;99.90
5924;DHT22;2987;50.884;14.818;2023-09-19T03:57:30;16.10;99.90
5924;DHT22;2987;50.884;14.818;2023-09-19T03:59:57;16.10;99.90
5924;DHT22;2987;50.884;14.818;2023-09-19T04:02:23;16.10;99.90
5924;DHT22;2987;50.884;14.818;2023-09-19T04:04:52;16.10;99.90
5924;DHT22;2987;50.884;14.818;2023-09-19T04:07:18;16.10;99.90
5924;DHT22;2987;50.884;14.818;2023-09-19T04:09:48;16.00;99.90
5924;DHT22;2987;50.884;14.818;2023-09-19T04:12:15;16.00;99.90
5924;DHT22;2987;50.884;14.818;2023-09-19T04:14:43;16.00;99.90
5924;DHT22;2987;50.884;14.818;2023-09-19T04:17:09;16.00;99.90
5924;DHT22;2987;50.884;14.818;2023-09-19T04:19:37;15.90;99.90
5924;DHT22;2987;50.884;14.818;2023-09-19T04:22:05;15.90;99.90
5924;DHT22;2987;50.884;14.818;2023-09-19T04:24:31;15.90;99.90
5924;DHT22;2987;50.884;14.818;2023-09-19T04:26:58;16.00;99.90
5924;DHT22;2987;50.884;14.818;2023-09-19T04:31:56;16.00;99.90
5924;DHT22;2987;50.884;14.818;2023-09-19T04:34:23;15.90;99.90
5924;DHT22;2987;50.884;14.818;2023-09-19T04:36:50;15.90;99.90
5924;DHT22;2987;50.884;14.818;2023-09-19T04:39:16;16.00;99.90
5924;DHT22;2987;50.884;14.818;2023-09-19T04:41:43;16.00;99.90
5924;DHT22;2987;50.884;14.818;2023-09-19T04:44:10;16.00;99.90
5924;DHT22;2987;50.884;14.818;2023-09-19T04:46:36;16.00;99.90
5924;DHT22;2987;50.884;14.818;2023-09-19T04:49:02;16.00;99.90
5924;DHT22;2987;50.884;14.818;2023-09-19T04:51:28;16.10;99.90
5924;DHT22;2987;50.884;14.818;2023-09-19T04:54:00;16.10;99.90
5924;DHT22;2987;50.884;14.818;2023-09-19T04:56:26;16.10;99.90
5924;DHT22;2987;50.884;14.818;2023-09-19T04:58:54;16.10;99.90
5924;DHT22;2987;50.884;14.818;2023-09-19T05:01:20;16.10;99.90
5924;DHT22;2987;50.884;14.818;2023-09-19T05:03:49;16.10;99.90
5924;DHT22;2987;50.884;14.818;2023-09-19T05:06:19;16.10;99.90
5924;DHT22;2987;50.884;14.818;2023-09-19T05:08:48;16.00;99.90
5924;DHT22;2987;50.884;14.818;2023-09-19T05:11:18;16.00;99.90
5924;DHT22;2987;50.884;14.818;2023-09-19T05:13:45;16.00;99.90
5924;DHT22;2987;50.884;14.818;2023-09-19T05:16:11;16.00;99.90
5924;DHT22;2987;50.884;14.818;2023-09-19T05:18:37;16.00;99.90
5924;DHT22;2987;50.884;14.818;2023-09-19T05:21:03;16.00;99.90
5924;DHT22;2987;50.884;14.818;2023-09-19T05:23:30;16.00;99.90
5924;DHT22;2987;50.884;14.818;2023-09-19T05:25:57;16.10;99.90
5924;DHT22;2987;50.884;14.818;2023-09-19T05:28:26;16.10;99.90
5924;DHT22;2987;50.884;14.818;2023-09-19T05:30:53;16.10;99.90
5924;DHT22;2987;50.884;14.818;2023-09-19T05:33:19;16.20;99.90
5924;DHT22;2987;50.884;14.818;2023-09-19T05:35:47;16.20;99.90
5924;DHT22;2987;50.884;14.818;2023-09-19T05:38:13;16.20;99.90
5924;DHT22;2987;50.884;14.818;2023-09-19T05:40:41;16.20;99.90
5924;DHT22;2987;50.884;14.818;2023-09-19T05:43:09;16.20;99.90
5924;DHT22;2987;50.884;14.818;2023-09-19T05:45:35;16.30;99.90
5924;DHT22;2987;50.884;14.818;2023-09-19T05:48:17;16.30;99.90
5924;DHT22;2987;50.884;14.818;2023-09-19T05:50:44;16.30;99.90
5924;DHT22;2987;50.884;14.818;2023-09-19T05:53:15;16.30;99.90
5924;DHT22;2987;50.884;14.818;2023-09-19T05:55:41;16.30;99.90
5924;DHT22;2987;50.884;14.818;2023-09-19T05:58:07;16.30;99.90
5924;DHT22;2987;50.884;14.818;2023-09-19T06:00:34;16.30;99.90
5924;DHT22;2987;50.884;14.818;2023-09-19T06:03:00;16.30;99.90
5924;DHT22;2987;50.884;14.818;2023-09-19T06:05:27;16.40;99.90
5924;DHT22;2987;50.884;14.818;2023-09-19T06:07:55;16.50;99.90
5924;DHT22;2987;50.884;14.818;2023-09-19T06:10:21;16.50;99.90
5924;DHT22;2987;50.884;14.818;2023-09-19T06:12:48;16.50;99.90
5924;DHT22;2987;50.884;14.818;2023-09-19T06:15:15;16.50;99.90
5924;DHT22;2987;50.884;14.818;2023-09-19T06:17:51;16.60;99.90
5924;DHT22;2987;50.884;14.818;2023-09-19T06:20:17;16.60;99.90
5924;DHT22;2987;50.884;14.818;2023-09-19T06:22:46;16.70;99.90
5924;DHT22;2987;50.884;14.818;2023-09-19T06:25:13;16.70;99.90
5924;DHT22;2987;50.884;14.818;2023-09-19T06:27:47;16.70;99.90
5924;DHT22;2987;50.884;14.818;2023-09-19T06:30:14;16.70;99.90
5924;DHT22;2987;50.884;14.818;2023-09-19T06:32:41;16.80;99.90
5924;DHT22;2987;50.884;14.818;2023-09-19T06:35:11;16.90;99.90
5924;DHT22;2987;50.884;14.818;2023-09-19T06:37:38;16.90;99.90
5924;DHT22;2987;50.884;14.818;2023-09-19T06:40:08;16.90;99.90
5924;DHT22;2987;50.884;14.818;2023-09-19T06:42:40;16.90;99.90
5924;DHT22;2987;50.884;14.818;2023-09-19T06:45:08;16.90;99.90
5924;DHT22;2987;50.884;14.818;2023-09-19T06:47:37;16.90;99.90
5924;DHT22;2987;50.884;14.818;2023-09-19T06:52:31;16.90;99.90
5924;DHT22;2987;50.884;14.818;2023-09-19T06:54:59;17.00;99.90
5924;DHT22;2987;50.884;14.818;2023-09-19T06:57:25;17.00;99.90
5924;DHT22;2987;50.884;14.818;2023-09-19T06:59:51;17.10;99.90
5924;DHT22;2987;50.884;14.818;2023-09-19T07:02:17;17.20;99.90
5924;DHT22;2987;50.884;14.818;2023-09-19T07:04:43;17.20;99.90
5924;DHT22;2987;50.884;14.818;2023-09-19T07:07:09;17.30;99.90
5924;DHT22;2987;50.884;14.818;2023-09-19T07:09:36;17.30;99.90
5924;DHT22;2987;50.884;14.818;2023-09-19T07:12:03;17.40;99.90
5924;DHT22;2987;50.884;14.818;2023-09-19T07:14:30;17.40;99.90
5924;DHT22;2987;50.884;14.818;2023-09-19T07:16:56;17.50;99.90
5924;DHT22;2987;50.884;14.818;2023-09-19T07:19:22;17.50;99.90
5924;DHT22;2987;50.884;14.818;2023-09-19T07:21:48;17.60;99.90
5924;DHT22;2987;50.884;14.818;2023-09-19T07:24:16;17.70;99.90
5924;DHT22;2987;50.884;14.818;2023-09-19T07:29:09;17.80;99.90
5924;DHT22;2987;50.884;14.818;2023-09-19T07:31:35;17.80;99.90
5924;DHT22;2987;50.884;14.818;2023-09-19T07:34:01;17.90;99.90
5924;DHT22;2987;50.884;14.818;2023-09-19T07:36:30;18.00;99.90
5924;DHT22;2987;50.884;14.818;2023-09-19T07:38:56;18.10;99.90
5924;DHT22;2987;50.884;14.818;2023-09-19T07:41:23;18.20;99.90
5924;DHT22;2987;50.884;14.818;2023-09-19T07:43:50;18.20;99.90
5924;DHT22;2987;50.884;14.818;2023-09-19T07:46:15;18.20;99.90
5924;DHT22;2987;50.884;14.818;2023-09-19T07:48:42;18.30;99.90
5924;DHT22;2987;50.884;14.818;2023-09-19T07:51:13;18.40;99.90
5924;DHT22;2987;50.884;14.818;2023-09-19T07:53:42;18.40;99.90
5924;DHT22;2987;50.884;14.818;2023-09-19T07:56:09;18.50;99.90
5924;DHT22;2987;50.884;14.818;2023-09-19T07:58:39;18.50;99.90
5924;DHT22;2987;50.884;14.818;2023-09-19T08:01:08;18.60;99.90
5924;DHT22;2987;50.884;14.818;2023-09-19T08:03:35;18.80;99.90
5924;DHT22;2987;50.884;14.818;2023-09-19T08:06:03;18.90;99.90
5924;DHT22;2987;50.884;14.818;2023-09-19T08:08:30;19.00;99.90
5924;DHT22;2987;50.884;14.818;2023-09-19T08:10:56;19.00;99.90
5924;DHT22;2987;50.884;14.818;2023-09-19T08:13:24;19.20;99.90
5924;DHT22;2987;50.884;14.818;2023-09-19T08:15:51;19.30;99.90
5924;DHT22;2987;50.884;14.818;2023-09-19T08:18:19;19.40;99.90
5924;DHT22;2987;50.884;14.818;2023-09-19T08:20:53;19.80;99.90
5924;DHT22;2987;50.884;14.818;2023-09-19T08:23:19;20.00;99.90
5924;DHT22;2987;50.884;14.818;2023-09-19T08:25:47;20.40;99.90
5924;DHT22;2987;50.884;14.818;2023-09-19T08:28:13;20.50;99.90
5924;DHT22;2987;50.884;14.818;2023-09-19T08:30:46;20.60;99.90
5924;DHT22;2987;50.884;14.818;2023-09-19T08:33:12;20.80;99.90
5924;DHT22;2987;50.884;14.818;2023-09-19T08:35:41;21.10;99.90
5924;DHT22;2987;50.884;14.818;2023-09-19T08:38:09;21.40;99.90
5924;DHT22;2987;50.884;14.818;2023-09-19T08:40:40;21.90;99.90
5924;DHT22;2987;50.884;14.818;2023-09-19T08:43:09;22.30;99.90
5924;DHT22;2987;50.884;14.818;2023-09-19T08:45:36;22.30;99.90
5924;DHT22;2987;50.884;14.818;2023-09-19T08:48:19;22.10;99.90
5924;DHT22;2987;50.884;14.818;2023-09-19T08:50:52;21.80;99.90
5924;DHT22;2987;50.884;14.818;2023-09-19T08:53:30;21.50;99.90
5924;DHT22;2987;50.884;14.818;2023-09-19T08:55:59;21.10;99.90
5924;DHT22;2987;50.884;14.818;2023-09-19T08:58:31;20.80;99.90
5924;DHT22;2987;50.884;14.818;2023-09-19T09:03:33;20.50;99.90
5924;DHT22;2987;50.884;14.818;2023-09-19T09:06:01;20.50;99.90
5924;DHT22;2987;50.884;14.818;2023-09-19T09:08:31;20.80;99.90
5924;DHT22;2987;50.884;14.818;2023-09-19T09:10:58;21.10;99.90
5924;DHT22;2987;50.884;14.818;2023-09-19T09:13:24;21.50;99.90
5924;DHT22;2987;50.884;14.818;2023-09-19T09:15:52;21.80;99.90
5924;DHT22;2987;50.884;14.818;2023-09-19T09:18:20;22.10;99.90
5924;DHT22;2987;50.884;14.818;2023-09-19T09:20:46;22.20;99.90
5924;DHT22;2987;50.884;14.818;2023-09-19T09:23:13;22.30;99.90
5924;DHT22;2987;50.884;14.818;2023-09-19T09:25:48;22.10;99.90
5924;DHT22;2987;50.884;14.818;2023-09-19T09:28:33;22.30;99.90
5924;DHT22;2987;50.884;14.818;2023-09-19T09:31:00;22.30;99.90
5924;DHT22;2987;50.884;14.818;2023-09-19T09:33:29;22.40;99.90
5924;DHT22;2987;50.884;14.818;2023-09-19T09:35:57;22.20;99.90
5924;DHT22;2987;50.884;14.818;2023-09-19T09:38:27;22.10;99.90
5924;DHT22;2987;50.884;14.818;2023-09-19T09:40:54;22.00;99.90
5924;DHT22;2987;50.884;14.818;2023-09-19T09:43:35;22.00;99.90
5924;DHT22;2987;50.884;14.818;2023-09-19T09:46:19;21.80;99.90
5924;DHT22;2987;50.884;14.818;2023-09-19T09:49:02;21.90;99.90
5924;DHT22;2987;50.884;14.818;2023-09-19T09:51:50;21.90;99.90
5924;DHT22;2987;50.884;14.818;2023-09-19T09:54:28;21.80;99.90
5924;DHT22;2987;50.884;14.818;2023-09-19T09:57:01;21.50;99.90
5924;DHT22;2987;50.884;14.818;2023-09-19T09:59:50;21.40;99.90
5924;DHT22;2987;50.884;14.818;2023-09-19T10:02:26;21.30;99.90
5924;DHT22;2987;50.884;14.818;2023-09-19T10:04:56;20.90;99.90
5924;DHT22;2987;50.884;14.818;2023-09-19T10:07:42;20.80;99.90
5924;DHT22;2987;50.884;14.818;2023-09-19T10:10:29;20.90;99.90
5924;DHT22;2987;50.884;14.818;2023-09-19T10:12:59;21.30;99.90
5924;DHT22;2987;50.884;14.818;2023-09-19T10:15:31;21.60;99.90
5924;DHT22;2987;50.884;14.818;2023-09-19T10:18:01;21.70;99.90
5924;DHT22;2987;50.884;14.818;2023-09-19T10:20:28;21.90;99.90
5924;DHT22;2987;50.884;14.818;2023-09-19T10:23:07;21.90;99.90
5924;DHT22;2987;50.884;14.818;2023-09-19T10:25:40;21.90;99.90
5924;DHT22;2987;50.884;14.818;2023-09-19T10:28:10;22.00;99.90
5924;DHT22;2987;50.884;14.818;2023-09-19T10:30:43;22.20;99.90
5924;DHT22;2987;50.884;14.818;2023-09-19T10:33:12;22.20;99.90
5924;DHT22;2987;50.884;14.818;2023-09-19T10:35:44;22.30;99.90
5924;DHT22;2987;50.884;14.818;2023-09-19T10:38:17;22.20;99.90
5924;DHT22;2987;50.884;14.818;2023-09-19T10:40:48;22.00;99.90
5924;DHT22;2987;50.884;14.818;2023-09-19T10:43:17;21.80;99.90
5924;DHT22;2987;50.884;14.818;2023-09-19T10:45:45;21.60;99.90
5924;DHT22;2987;50.884;14.818;2023-09-19T10:48:12;21.40;99.90
5924;DHT22;2987;50.884;14.818;2023-09-19T10:50:47;21.20;99.90
5924;DHT22;2987;50.884;14.818;2023-09-19T10:53:16;21.10;99.90
5924;DHT22;2987;50.884;14.818;2023-09-19T10:55:59;21.00;99.90
5924;DHT22;2987;50.884;14.818;2023-09-19T10:58:31;21.00;99.90
5924;DHT22;2987;50.884;14.818;2023-09-19T11:01:01;20.90;99.90
5924;DHT22;2987;50.884;14.818;2023-09-19T11:03:38;20.80;99.90
5924;DHT22;2987;50.884;14.818;2023-09-19T11:06:12;20.70;99.90
5924;DHT22;2987;50.884;14.818;2023-09-19T11:08:59;20.70;99.90
5924;DHT22;2987;50.884;14.818;2023-09-19T11:11:46;20.50;99.90
5924;DHT22;2987;50.884;14.818;2023-09-19T11:14:29;20.80;99.90
5924;DHT22;2987;50.884;14.818;2023-09-19T11:23:17;22.30;99.90
5924;DHT22;2987;50.884;14.818;2023-09-19T11:25:44;22.70;99.90
5924;DHT22;2987;50.884;14.818;2023-09-19T11:28:28;22.90;99.90
5924;DHT22;2987;50.884;14.818;2023-09-19T11:30:56;23.20;99.90
5924;DHT22;2987;50.884;14.818;2023-09-19T11:33:28;23.30;99.90
5924;DHT22;2987;50.884;14.818;2023-09-19T11:36:15;23.30;99.90
5924;DHT22;2987;50.884;14.818;2023-09-19T11:38:57;23.30;99.90
5924;DHT22;2987;50.884;14.818;2023-09-19T11:41:43;23.20;99.90
5924;DHT22;2987;50.884;14.818;2023-09-19T11:44:31;23.10;99.90
5924;DHT22;2987;50.884;14.818;2023-09-19T11:49:30;23.20;99.90
5924;DHT22;2987;50.884;14.818;2023-09-19T11:51:59;23.50;99.90
5924;DHT22;2987;50.884;14.818;2023-09-19T11:54:27;23.80;99.90
5924;DHT22;2987;50.884;14.818;2023-09-19T11:56:59;24.00;99.90
5924;DHT22;2987;50.884;14.818;2023-09-19T11:59:28;24.20;99.90
5924;DHT22;2987;50.884;14.818;2023-09-19T12:01:56;24.40;99.90
5924;DHT22;2987;50.884;14.818;2023-09-19T12:04:41;24.60;99.90
5924;DHT22;2987;50.884;14.818;2023-09-19T12:07:11;24.50;99.90
5924;DHT22;2987;50.884;14.818;2023-09-19T12:09:44;24.30;99.90
5924;DHT22;2987;50.884;14.818;2023-09-19T12:12:23;24.40;99.90
5924;DHT22;2987;50.884;14.818;2023-09-19T12:14:50;24.20;99.90
5924;DHT22;2987;50.884;14.818;2023-09-19T12:17:17;24.10;99.90
5924;DHT22;2987;50.884;14.818;2023-09-19T12:19:52;23.90;99.90
5924;DHT22;2987;50.884;14.818;2023-09-19T12:22:18;23.60;99.90
5924;DHT22;2987;50.884;14.818;2023-09-19T12:24:46;23.40;99.90
5924;DHT22;2987;50.884;14.818;2023-09-19T12:27:13;23.10;99.90
5924;DHT22;2987;50.884;14.818;2023-09-19T12:29:48;23.00;99.90
5924;DHT22;2987;50.884;14.818;2023-09-19T12:32:15;23.00;99.90
5924;DHT22;2987;50.884;14.818;2023-09-19T12:34:53;23.10;99.90
5924;DHT22;2987;50.884;14.818;2023-09-19T12:37:20;23.20;99.90
5924;DHT22;2987;50.884;14.818;2023-09-19T12:39:49;23.40;99.90
5924;DHT22;2987;50.884;14.818;2023-09-19T12:42:19;23.40;99.90
5924;DHT22;2987;50.884;14.818;2023-09-19T12:44:48;23.50;99.90
5924;DHT22;2987;50.884;14.818;2023-09-19T12:47:17;23.70;99.90
5924;DHT22;2987;50.884;14.818;2023-09-19T12:50:13;23.80;99.90
5924;DHT22;2987;50.884;14.818;2023-09-19T12:52:48;23.80;99.90
5924;DHT22;2987;50.884;14.818;2023-09-19T12:55:31;23.80;99.90
5924;DHT22;2987;50.884;14.818;2023-09-19T12:58:09;23.70;99.90
5924;DHT22;2987;50.884;14.818;2023-09-19T13:00:39;23.80;99.90
5924;DHT22;2987;50.884;14.818;2023-09-19T13:03:27;23.90;99.90
5924;DHT22;2987;50.884;14.818;2023-09-19T13:05:59;24.00;99.90
5924;DHT22;2987;50.884;14.818;2023-09-19T13:08:30;24.10;99.90
5924;DHT22;2987;50.884;14.818;2023-09-19T13:11:09;24.20;99.90
5924;DHT22;2987;50.884;14.818;2023-09-19T13:13:37;24.10;99.90
5924;DHT22;2987;50.884;14.818;2023-09-19T13:16:04;24.10;99.90
5924;DHT22;2987;50.884;14.818;2023-09-19T13:18:46;24.00;99.90
5924;DHT22;2987;50.884;14.818;2023-09-19T13:21:14;24.00;99.90
5924;DHT22;2987;50.884;14.818;2023-09-19T13:23:53;24.00;99.90
5924;DHT22;2987;50.884;14.818;2023-09-19T13:26:22;24.00;99.90
5924;DHT22;2987;50.884;14.818;2023-09-19T13:28:48;24.20;99.90
5924;DHT22;2987;50.884;14.818;2023-09-19T13:31:15;24.00;99.90
5924;DHT22;2987;50.884;14.818;2023-09-19T13:33:46;24.00;99.90
5924;DHT22;2987;50.884;14.818;2023-09-19T13:36:13;24.10;99.90
5924;DHT22;2987;50.884;14.818;2023-09-19T13:38:43;24.30;99.90
5924;DHT22;2987;50.884;14.818;2023-09-19T13:41:10;24.30;99.90
5924;DHT22;2987;50.884;14.818;2023-09-19T13:43:37;24.30;99.90
5924;DHT22;2987;50.884;14.818;2023-09-19T13:46:05;24.30;99.90
5924;DHT22;2987;50.884;14.818;2023-09-19T13:48:34;24.20;99.90
5924;DHT22;2987;50.884;14.818;2023-09-19T13:51:03;24.20;99.90
5924;DHT22;2987;50.884;14.818;2023-09-19T13:53:29;24.10;99.90
5924;DHT22;2987;50.884;14.818;2023-09-19T13:55:55;23.80;99.90
5924;DHT22;2987;50.884;14.818;2023-09-19T13:58:22;23.70;99.90
5924;DHT22;2987;50.884;14.818;2023-09-19T14:00:49;23.60;99.90
5924;DHT22;2987;50.884;14.818;2023-09-19T14:03:16;23.40;99.90
5924;DHT22;2987;50.884;14.818;2023-09-19T14:05:42;23.30;99.90
5924;DHT22;2987;50.884;14.818;2023-09-19T14:08:08;23.30;99.90
5924;DHT22;2987;50.884;14.818;2023-09-19T14:10:34;23.30;99.90
5924;DHT22;2987;50.884;14.818;2023-09-19T14:13:01;23.30;99.90
5924;DHT22;2987;50.884;14.818;2023-09-19T14:15:28;23.30;99.90
5924;DHT22;2987;50.884;14.818;2023-09-19T14:17:57;23.20;99.90
5924;DHT22;2987;50.884;14.818;2023-09-19T14:20:23;23.10;99.90
5924;DHT22;2987;50.884;14.818;2023-09-19T14:22:49;23.00;99.90
5924;DHT22;2987;50.884;14.818;2023-09-19T14:25:15;22.80;99.90
5924;DHT22;2987;50.884;14.818;2023-09-19T14:27:41;22.70;99.90
5924;DHT22;2987;50.884;14.818;2023-09-19T14:30:07;22.80;99.90
5924;DHT22;2987;50.884;14.818;2023-09-19T14:32:35;22.70;99.90
5924;DHT22;2987;50.884;14.818;2023-09-19T14:35:02;22.70;99.90
5924;DHT22;2987;50.884;14.818;2023-09-19T14:37:28;22.70;99.90
5924;DHT22;2987;50.884;14.818;2023-09-19T14:39:54;22.70;99.90
5924;DHT22;2987;50.884;14.818;2023-09-19T14:42:20;22.60;99.90
5924;DHT22;2987;50.884;14.818;2023-09-19T14:44:46;22.60;99.90
5924;DHT22;2987;50.884;14.818;2023-09-19T14:47:14;22.60;99.90
5924;DHT22;2987;50.884;14.818;2023-09-19T14:49:41;22.60;99.90
5924;DHT22;2987;50.884;14.818;2023-09-19T14:52:08;22.50;99.90
5924;DHT22;2987;50.884;14.818;2023-09-19T14:54:36;22.40;99.90
5924;DHT22;2987;50.884;14.818;2023-09-19T14:57:04;22.40;99.90
5924;DHT22;2987;50.884;14.818;2023-09-19T14:59:31;22.30;99.90
5924;DHT22;2987;50.884;14.818;2023-09-19T15:01:58;22.20;99.90
5924;DHT22;2987;50.884;14.818;2023-09-19T15:04:24;22.20;99.90
5924;DHT22;2987;50.884;14.818;2023-09-19T15:06:50;22.20;99.90
5924;DHT22;2987;50.884;14.818;2023-09-19T15:09:22;22.10;99.90
5924;DHT22;2987;50.884;14.818;2023-09-19T15:11:52;22.10;99.90
5924;DHT22;2987;50.884;14.818;2023-09-19T15:14:19;22.10;99.90
5924;DHT22;2987;50.884;14.818;2023-09-19T15:16:45;22.10;99.90
5924;DHT22;2987;50.884;14.818;2023-09-19T15:19:13;22.00;99.90
5924;DHT22;2987;50.884;14.818;2023-09-19T15:21:39;22.00;99.90
5924;DHT22;2987;50.884;14.818;2023-09-19T15:24:06;21.90;99.90
5924;DHT22;2987;50.884;14.818;2023-09-19T15:26:36;21.90;99.90
5924;DHT22;2987;50.884;14.818;2023-09-19T15:29:06;21.90;99.90
5924;DHT22;2987;50.884;14.818;2023-09-19T15:31:33;21.80;99.90
5924;DHT22;2987;50.884;14.818;2023-09-19T15:33:59;21.70;99.90
5924;DHT22;2987;50.884;14.818;2023-09-19T15:36:26;21.70;99.90
5924;DHT22;2987;50.884;14.818;2023-09-19T15:39:02;21.70;99.90
5924;DHT22;2987;50.884;14.818;2023-09-19T15:41:32;21.60;99.90
5924;DHT22;2987;50.884;14.818;2023-09-19T15:44:00;21.60;99.90
5924;DHT22;2987;50.884;14.818;2023-09-19T15:46:27;21.50;99.90
5924;DHT22;2987;50.884;14.818;2023-09-19T15:48:55;21.50;99.90
5924;DHT22;2987;50.884;14.818;2023-09-19T15:51:23;21.40;99.90
5924;DHT22;2987;50.884;14.818;2023-09-19T15:53:52;21.30;99.90
5924;DHT22;2987;50.884;14.818;2023-09-19T15:56:20;21.20;99.90
5924;DHT22;2987;50.884;14.818;2023-09-19T15:58:50;21.10;99.90
5924;DHT22;2987;50.884;14.818;2023-09-19T16:01:17;21.00;99.90
5924;DHT22;2987;50.884;14.818;2023-09-19T16:03:48;20.80;99.90
5924;DHT22;2987;50.884;14.818;2023-09-19T16:06:17;20.70;99.90
5924;DHT22;2987;50.884;14.818;2023-09-19T16:08:44;20.50;99.90
5924;DHT22;2987;50.884;14.818;2023-09-19T16:11:11;20.40;99.90
5924;DHT22;2987;50.884;14.818;2023-09-19T16:13:37;20.40;99.90
5924;DHT22;2987;50.884;14.818;2023-09-19T16:16:04;20.20;99.90
5924;DHT22;2987;50.884;14.818;2023-09-19T16:18:31;20.10;99.90
5924;DHT22;2987;50.884;14.818;2023-09-19T16:21:03;19.90;99.90
5924;DHT22;2987;50.884;14.818;2023-09-19T16:23:30;19.80;99.90
5924;DHT22;2987;50.884;14.818;2023-09-19T16:26:04;19.70;99.90
5924;DHT22;2987;50.884;14.818;2023-09-19T16:31:00;19.50;99.90
5924;DHT22;2987;50.884;14.818;2023-09-19T16:33:29;19.40;99.90
5924;DHT22;2987;50.884;14.818;2023-09-19T16:35:55;19.30;99.90
5924;DHT22;2987;50.884;14.818;2023-09-19T16:38:24;19.20;99.90